Time;durP1;ratioP1;P1;durP2;ratioP2;P2;SDS_P1;SDS_P2;PMS_P1;PMS_P2;Temp;Humidity;BMP_temperature;BMP_pressure;BME280_temperature;BME280_humidity;BME280_pressure;Samples;Min_cycle;Max_cycle;Signal;HPM_P1;HPM_P2
2023/01/20 00:00:51;;;;;;;7.95;4.53;;;;;;;-14.14;79.43;100533.44;4902083;28;20410;-58
2023/01/20 00:03:22;;;;;;;14.55;5.45;;;;;;;-14.17;79.63;100530.66;4901155;28;20048;-58
2023/01/20 00:05:53;;;;;;;11.30;5.25;;;;;;;-14.36;79.75;100491.41;4901485;28;20102;-58
2023/01/20 00:08:25;;;;;;;20.58;5.25;;;;;;;-14.74;79.63;100409.53;4898587;28;20053;-58
2023/01/20 00:10:56;;;;;;;16.70;6.18;;;;;;;-14.16;79.09;100499.78;4902188;28;20066;-58
2023/01/20 00:13:27;;;;;;;12.07;5.97;;;;;;;-13.87;79.43;100523.97;4902069;28;21278;-58
2023/01/20 00:15:58;;;;;;;11.82;5.53;;;;;;;-13.94;79.22;100527.59;4901325;28;20060;-57
2023/01/20 00:18:29;;;;;;;12.18;5.32;;;;;;;-13.98;79.40;100535.59;4901734;28;20059;-58
2023/01/20 00:21:04;;;;;;;9.95;4.90;;;;;;;-14.25;79.17;100509.03;4901868;28;20060;-57
2023/01/20 00:23:37;;;;;;;13.30;6.07;;;;;;;-14.07;78.88;100510.59;4892259;28;20057;-58
2023/01/20 00:26:08;;;;;;;16.95;6.35;;;;;;;-13.87;79.33;100526.47;4902141;28;20123;-58
2023/01/20 00:28:39;;;;;;;18.38;6.72;;;;;;;-14.12;79.09;100474.19;4902495;28;20113;-57
2023/01/20 00:31:15;;;;;;;15.00;6.13;;;;;;;-13.88;78.70;100497.06;4900608;28;20067;-58
2023/01/20 00:33:46;;;;;;;20.45;7.03;;;;;;;-13.86;78.41;100510.66;4889866;28;20060;-58
2023/01/20 00:36:18;;;;;;;18.85;7.18;;;;;;;-13.87;78.49;100513.91;4902701;28;20156;-58
2023/01/20 00:38:51;;;;;;;14.43;6.10;;;;;;;-13.91;78.13;100486.00;4901224;28;20063;-58
2023/01/20 00:41:22;;;;;;;17.52;5.65;;;;;;;-13.69;78.77;100530.53;4901549;28;20794;-58
2023/01/20 00:43:52;;;;;;;15.77;6.38;;;;;;;-13.61;78.46;100534.53;4900506;28;20067;-58
2023/01/20 00:46:23;;;;;;;16.27;6.75;;;;;;;-13.57;77.97;100521.50;4900798;28;20075;-58
2023/01/20 00:48:54;;;;;;;23.35;6.97;;;;;;;-13.56;77.25;100533.28;4898867;28;20053;-60
2023/01/20 00:51:25;;;;;;;21.60;6.63;;;;;;;-13.54;77.60;100526.78;4905730;28;20050;-58
2023/01/20 00:53:57;;;;;;;17.30;6.25;;;;;;;-13.73;77.08;100493.31;4901321;28;20037;-58
2023/01/20 00:56:27;;;;;;;12.32;6.45;;;;;;;-13.69;76.57;100506.28;4902519;28;20154;-58
2023/01/20 00:58:58;;;;;;;14.32;6.40;;;;;;;-13.51;76.66;100529.53;4901370;28;20132;-58
2023/01/20 01:01:29;;;;;;;14.90;6.20;;;;;;;-13.40;76.23;100535.47;4900417;28;20049;-58
2023/01/20 01:03:59;;;;;;;12.43;5.50;;;;;;;-13.49;76.11;100525.50;4898289;28;20056;-58
2023/01/20 01:06:30;;;;;;;14.48;5.60;;;;;;;-13.50;75.99;100513.72;4900966;28;20753;-57
2023/01/20 01:09:02;;;;;;;11.52;4.78;;;;;;;-13.55;75.54;100514.97;4900933;28;20119;-58
2023/01/20 01:11:33;;;;;;;19.25;6.85;;;;;;;-13.63;74.97;100510.91;4900776;28;20055;-57
2023/01/20 01:14:03;;;;;;;13.93;5.88;;;;;;;-13.63;75.03;100510.91;4900250;28;20132;-57
2023/01/20 01:16:34;;;;;;;14.98;6.50;;;;;;;-13.69;75.30;100512.94;4908266;28;20063;-58
2023/01/20 01:19:05;;;;;;;23.60;7.90;;;;;;;-13.57;75.23;100508.94;4905241;28;20053;-58
2023/01/20 01:21:35;;;;;;;16.67;6.13;;;;;;;-13.42;74.71;100500.91;4901184;28;20063;-58
2023/01/20 01:24:08;;;;;;;23.60;8.10;;;;;;;-13.40;73.77;100509.41;4900761;28;20052;-58
2023/01/20 01:26:38;;;;;;;23.08;6.93;;;;;;;-13.45;73.53;100495.59;4901305;28;20163;-58
2023/01/20 01:29:11;;;;;;;25.30;7.75;;;;;;;-13.27;73.33;100498.00;4900266;28;20056;-58
2023/01/20 01:31:41;;;;;;;16.70;7.10;;;;;;;-13.09;72.98;100493.53;4900429;28;20060;-58
2023/01/20 01:34:12;;;;;;;11.43;5.30;;;;;;;-13.04;72.03;100507.38;4900808;28;20143;-58
2023/01/20 01:36:43;;;;;;;23.23;7.47;;;;;;;-13.04;71.78;100491.41;4901457;28;20139;-58
2023/01/20 01:39:15;;;;;;;13.43;5.10;;;;;;;-13.09;71.86;100496.06;4899111;28;20041;-58
2023/01/20 01:41:45;;;;;;;21.17;7.65;;;;;;;-13.59;71.88;100407.41;4899958;28;20048;-58
2023/01/20 01:44:17;;;;;;;20.67;8.57;;;;;;;-13.53;71.37;100452.25;4900583;28;20672;-58
2023/01/20 01:46:47;;;;;;;22.10;7.65;;;;;;;-13.40;71.84;100489.31;4901137;28;20117;-58
2023/01/20 01:49:21;;;;;;;26.02;8.45;;;;;;;-13.31;71.97;100485.03;4901713;28;20123;-57
2023/01/20 01:51:56;;;;;;;24.48;7.97;;;;;;;-13.48;71.19;100481.16;4900105;28;20060;-58
2023/01/20 01:54:32;;;;;;;23.13;7.82;;;;;;;-13.55;71.44;100484.81;4890737;28;20056;-56
2023/01/20 01:57:03;;;;;;;16.50;6.38;;;;;;;-13.85;71.68;100447.09;4891286;28;20052;-57
2023/01/20 01:59:36;;;;;;;24.25;7.22;;;;;;;-13.59;72.04;100492.84;4897532;28;20053;-58
2023/01/20 02:02:07;;;;;;;23.08;8.35;;;;;;;-13.75;72.41;100494.81;4899448;28;20110;-57
2023/01/20 02:04:38;;;;;;;16.20;6.95;;;;;;;-13.72;72.50;100485.06;4907422;28;20049;-57
2023/01/20 02:07:14;;;;;;;21.27;7.80;;;;;;;-14.18;72.87;100456.06;4897619;28;20484;-57
2023/01/20 02:09:46;;;;;;;16.13;7.90;;;;;;;-13.73;73.06;100518.44;4893054;28;20055;-58
2023/01/20 02:12:20;;;;;;;15.48;6.43;;;;;;;-13.77;72.77;100501.38;4900560;28;20052;-57
2023/01/20 02:14:53;;;;;;;24.38;7.80;;;;;;;-13.69;72.43;100500.38;4899531;28;20102;-57
2023/01/20 02:17:29;;;;;;;23.40;7.32;;;;;;;-13.52;72.47;100520.25;4895468;28;20171;-58
2023/01/20 02:20:47;;;;;;;24.48;8.88;;;;;;;-13.49;71.03;100480.28;4899589;28;20048;-60
2023/01/20 02:23:35;;;;;;;18.50;6.53;;;;;;;-13.26;71.62;100501.34;4888997;28;20064;-58
2023/01/20 02:26:54;;;;;;;17.13;6.82;;;;;;;-13.29;70.99;100489.44;4886350;28;20063;-58
2023/01/20 02:29:59;;;;;;;27.23;7.65;;;;;;;-13.34;70.94;100482.28;4836261;28;20209;-57
2023/01/20 02:32:43;;;;;;;19.98;7.25;;;;;;;-13.38;70.99;100487.81;4888297;28;20098;-58
2023/01/20 02:35:21;;;;;;;22.58;7.82;;;;;;;-13.25;71.51;100470.44;4885823;28;20490;-58
2023/01/20 02:38:02;;;;;;;19.52;8.00;;;;;;;-13.28;70.28;100477.75;4885603;28;20063;-57
2023/01/20 02:40:39;;;;;;;13.65;6.85;;;;;;;-13.32;70.78;100465.69;4890723;28;20048;-58
2023/01/20 02:43:18;;;;;;;26.77;8.05;;;;;;;-13.29;70.45;100478.50;4891067;28;20178;-58
2023/01/20 02:45:57;;;;;;;20.23;8.27;;;;;;;-12.99;70.47;100466.63;4886802;28;20403;-59
2023/01/20 02:48:35;;;;;;;17.25;7.00;;;;;;;-12.99;69.92;100470.00;4884200;28;20108;-58
2023/01/20 02:51:12;;;;;;;20.42;7.50;;;;;;;-13.37;70.22;100464.44;4903612;28;20040;-58
2023/01/20 02:54:03;;;;;;;21.23;7.22;;;;;;;-13.53;70.57;100468.19;4872353;28;20248;-59
2023/01/20 02:56:35;;;;;;;24.02;7.00;;;;;;;-13.58;70.83;100474.47;4900856;28;20042;-59
2023/01/20 02:59:10;;;;;;;20.05;8.20;;;;;;;-14.00;70.55;100402.38;4887382;28;20091;-59
2023/01/20 03:01:46;;;;;;;22.38;8.43;;;;;;;-13.47;70.75;100458.66;4903805;28;20063;-59
2023/01/20 03:04:24;;;;;;;20.30;8.40;;;;;;;-13.81;70.61;100424.84;4893338;28;20056;-59
2023/01/20 03:06:57;;;;;;;12.80;6.00;;;;;;;-13.50;70.91;100442.47;4879433;28;20118;-59
2023/01/20 03:09:36;;;;;;;21.17;8.02;;;;;;;-13.51;70.70;100439.06;4902951;28;20395;-59
2023/01/20 03:12:21;;;;;;;29.63;10.25;;;;;;;-13.61;69.54;100444.09;4892921;28;20063;-59
2023/01/20 03:14:53;;;;;;;29.42;8.73;;;;;;;-13.55;69.81;100458.78;4894046;28;20752;-59
2023/01/20 03:17:24;;;;;;;18.67;7.80;;;;;;;-13.50;69.62;100423.22;4901171;28;20058;-60
2023/01/20 03:19:56;;;;;;;19.98;6.82;;;;;;;-13.36;68.86;100438.53;4908239;28;20042;-59
2023/01/20 03:22:26;;;;;;;19.05;6.85;;;;;;;-13.54;69.58;100430.41;4887617;28;20048;-59
2023/01/20 03:24:59;;;;;;;16.25;6.70;;;;;;;-13.63;69.25;100415.44;4885412;28;20311;-59
2023/01/20 03:27:30;;;;;;;24.70;8.32;;;;;;;-13.73;70.13;100423.84;4888573;28;20430;-59
2023/01/20 03:30:00;;;;;;;19.25;7.78;;;;;;;-13.91;69.00;100390.56;4897270;28;20068;-59
2023/01/20 03:32:31;;;;;;;14.52;6.55;;;;;;;-13.85;69.39;100406.91;4902802;28;20638;-59
2023/01/20 03:35:03;;;;;;;21.27;9.07;;;;;;;-13.95;69.97;100391.09;4899370;28;20048;-59
2023/01/20 03:37:34;;;;;;;13.90;6.07;;;;;;;-13.76;70.08;100392.59;4899056;28;20058;-59
2023/01/20 03:43:25;;;;;;;25.70;8.75;;;;;;;-13.72;69.50;100369.47;4799441;28;20101;-59
2023/01/20 03:46:01;;;;;;;15.13;6.22;;;;;;;-13.86;69.29;100338.22;4800367;28;20066;-58
2023/01/20 03:48:41;;;;;;;26.13;9.05;;;;;;;-13.86;69.67;100349.88;4803292;28;20383;-58
2023/01/20 03:51:21;;;;;;;18.50;8.88;;;;;;;-14.20;70.09;100306.94;4801296;28;20106;-59
2023/01/20 03:53:53;;;;;;;;;;;;;;;-14.15;69.44;100330.78;4819821;28;20065;-59
2023/01/20 03:56:29;;;;;;;20.30;8.73;;;;;;;-14.24;70.49;100340.09;4834461;28;20613;-58
2023/01/20 03:59:02;;;;;;;12.68;6.65;;;;;;;-14.75;70.32;100224.66;4808383;28;20117;-59
2023/01/20 04:01:37;;;;;;;17.48;6.93;;;;;;;-14.23;70.78;100331.81;4811355;28;20952;-59
2023/01/20 04:04:11;;;;;;;23.35;8.07;;;;;;;-14.22;70.70;100326.06;4799160;28;20066;-59
2023/01/20 04:06:45;;;;;;;18.85;7.53;;;;;;;-14.32;70.33;100347.00;4810658;28;20046;-58
2023/01/20 04:09:20;;;;;;;21.15;6.68;;;;;;;-14.43;70.76;100358.63;4801328;28;20064;-59
2023/01/20 04:11:51;;;;;;;20.48;7.82;;;;;;;-14.45;71.53;100453.00;4809353;28;20386;-58
2023/01/20 04:14:21;;;;;;;9.82;5.68;;;;;;;-14.40;72.30;100414.13;4809420;28;20062;-58
2023/01/20 04:16:55;;;;;;;15.73;5.88;;;;;;;-14.27;72.07;100392.56;4809991;28;20145;-59
2023/01/20 04:19:27;;;;;;;21.85;7.97;;;;;;;-14.43;71.49;100459.00;4800935;28;20057;-59
2023/01/20 04:22:05;;;;;;;19.65;7.60;;;;;;;-14.57;71.78;100444.47;4899742;28;20164;-58
2023/01/20 04:24:41;;;;;;;12.15;6.15;;;;;;;-14.30;71.24;100434.97;4889435;28;20052;-59
2023/01/20 04:27:12;;;;;;;10.68;5.60;;;;;;;-14.46;71.21;100438.69;4902126;28;20482;-59
2023/01/20 04:29:43;;;;;;;14.70;6.32;;;;;;;-14.31;71.64;100458.31;4900778;28;20110;-58
2023/01/20 04:32:14;;;;;;;16.17;6.28;;;;;;;-14.27;71.40;100455.31;4898611;28;20061;-58
2023/01/20 04:34:44;;;;;;;24.33;7.50;;;;;;;-14.40;71.46;100409.09;4904968;28;20046;-59
2023/01/20 04:37:16;;;;;;;25.25;7.90;;;;;;;-14.03;71.10;100462.38;4905417;28;20325;-58
2023/01/20 04:39:47;;;;;;;17.85;6.30;;;;;;;-14.08;70.98;100473.66;4901593;28;20490;-57
2023/01/20 04:42:17;;;;;;;15.32;6.68;;;;;;;-14.23;71.27;100480.78;4896283;28;20067;-57
2023/01/20 04:44:48;;;;;;;18.15;8.05;;;;;;;-14.45;71.98;100480.63;4896251;28;20122;-57
2023/01/20 04:47:18;;;;;;;16.75;6.53;;;;;;;-14.48;71.84;100455.22;4901864;28;20060;-57
2023/01/20 04:49:49;;;;;;;15.15;5.28;;;;;;;-14.63;71.87;100423.84;4898220;28;20622;-57
2023/01/20 04:52:21;;;;;;;16.35;6.80;;;;;;;-14.59;70.87;100435.94;4890020;28;20045;-57
2023/01/20 04:54:52;;;;;;;9.75;6.00;;;;;;;-14.60;70.67;100434.16;4894676;28;20516;-57
2023/01/20 04:57:23;;;;;;;15.55;6.28;;;;;;;-14.59;70.98;100450.97;4901320;28;20067;-57
2023/01/20 04:59:53;;;;;;;11.38;5.13;;;;;;;-14.57;69.51;100444.47;4901411;28;20054;-57
2023/01/20 05:02:24;;;;;;;8.95;5.00;;;;;;;-14.99;69.42;100372.31;4897135;28;20063;-59
2023/01/20 05:04:54;;;;;;;13.85;5.13;;;;;;;-14.62;69.33;100440.69;4902388;28;20161;-58
2023/01/20 05:07:27;;;;;;;16.77;6.75;;;;;;;-14.58;69.21;100447.72;4902662;28;20054;-57
2023/01/20 05:09:57;;;;;;;17.20;6.80;;;;;;;-14.61;69.01;100444.94;4900576;28;20102;-57
2023/01/20 05:12:28;;;;;;;11.50;5.53;;;;;;;-14.62;69.28;100450.72;4900697;28;20067;-58
2023/01/20 05:14:58;;;;;;;14.43;6.57;;;;;;;-14.64;69.32;100432.16;4900171;28;20066;-58
2023/01/20 05:17:29;;;;;;;15.65;5.65;;;;;;;-14.62;69.61;100445.72;4902108;28;20087;-58
2023/01/20 05:20:00;;;;;;;14.25;5.97;;;;;;;-14.58;69.87;100452.72;4900571;28;20036;-58
2023/01/20 05:22:32;;;;;;;11.77;5.40;;;;;;;-14.61;69.88;100443.31;4900457;28;20471;-57
2023/01/20 05:25:03;;;;;;;16.35;5.40;;;;;;;-14.59;70.02;100445.97;4884071;28;20048;-58
2023/01/20 05:27:35;;;;;;;14.13;4.75;;;;;;;-14.69;69.94;100443.41;4896504;28;20053;-59
2023/01/20 05:30:08;;;;;;;15.15;5.78;;;;;;;-14.73;70.64;100441.38;4894564;28;20052;-58
2023/01/20 05:32:39;;;;;;;12.32;5.30;;;;;;;-14.83;71.29;100433.06;4900868;28;20106;-58
2023/01/20 05:35:10;;;;;;;15.95;5.20;;;;;;;-15.08;71.00;100401.59;4898682;28;20157;-58
2023/01/20 05:37:43;;;;;;;19.63;6.18;;;;;;;-15.05;71.34;100401.84;4900613;28;20475;-58
2023/01/20 05:40:15;;;;;;;14.23;6.18;;;;;;;-14.90;71.05;100433.31;4899892;28;20042;-58
2023/01/20 05:42:46;;;;;;;13.88;6.15;;;;;;;-14.96;71.12;100432.75;4900400;28;20102;-58
2023/01/20 05:45:17;;;;;;;11.25;5.68;;;;;;;-14.94;71.52;100441.28;4898070;28;20059;-58
2023/01/20 05:47:48;;;;;;;9.75;5.45;;;;;;;-14.91;71.14;100436.53;4901137;28;20044;-57
2023/01/20 05:50:19;;;;;;;7.68;5.60;;;;;;;-14.89;70.77;100444.19;4900119;28;20048;-58
2023/01/20 05:52:51;;;;;;;5.13;4.07;;;;;;;-15.01;71.30;100434.84;4899118;28;20049;-57
2023/01/20 05:55:21;;;;;;;8.55;5.10;;;;;;;-15.05;71.48;100426.94;4900870;28;20044;-58
2023/01/20 05:57:52;;;;;;;16.63;6.15;;;;;;;-15.10;71.64;100429.06;4900850;28;20056;-58
2023/01/20 06:00:23;;;;;;;9.80;4.35;;;;;;;-15.57;71.59;100357.22;4900396;28;20056;-57
2023/01/20 06:02:53;;;;;;;10.95;5.03;;;;;;;-15.16;71.93;100423.50;4897021;28;20155;-58
2023/01/20 06:05:24;;;;;;;8.20;4.88;;;;;;;-15.27;72.39;100410.03;4907508;28;20054;-58
2023/01/20 06:07:58;;;;;;;15.93;5.18;;;;;;;-15.31;72.63;100402.97;4905820;28;20240;-58
2023/01/20 06:10:28;;;;;;;9.35;5.25;;;;;;;-15.35;72.58;100405.94;4904925;28;20060;-57
2023/01/20 06:12:59;;;;;;;8.70;5.43;;;;;;;-15.47;72.65;100405.78;4903410;28;20070;-58
2023/01/20 06:15:30;;;;;;;9.68;5.38;;;;;;;-15.50;72.51;100414.63;4904869;28;20049;-57
2023/01/20 06:18:00;;;;;;;6.32;4.68;;;;;;;-15.57;72.48;100412.31;4903290;28;20049;-58
2023/01/20 06:20:30;;;;;;;7.88;4.70;;;;;;;-15.56;72.82;100421.63;4903507;28;20102;-57
2023/01/20 06:23:03;;;;;;;13.73;5.55;;;;;;;-15.67;72.51;100415.66;4901122;28;20052;-57
2023/01/20 06:25:33;;;;;;;13.77;5.28;;;;;;;-15.68;72.27;100439.81;4902402;28;20058;-58
2023/01/20 06:28:04;;;;;;;6.32;4.55;;;;;;;-15.76;72.43;100450.78;4909440;28;20045;-57
2023/01/20 06:30:35;;;;;;;7.45;4.47;;;;;;;-15.82;72.34;100455.25;4905325;28;20053;-57
2023/01/20 06:33:09;;;;;;;20.52;4.93;;;;;;;-15.90;72.60;100456.16;4901759;28;20577;-57
2023/01/20 06:35:40;;;;;;;7.47;3.95;;;;;;;-15.93;72.93;100465.91;4902731;28;20055;-57
2023/01/20 06:38:12;;;;;;;5.68;4.10;;;;;;;-15.98;73.66;100472.13;4903390;28;20398;-57
2023/01/20 06:40:43;;;;;;;8.55;5.32;;;;;;;-16.07;73.98;100477.19;4903696;28;20449;-57
2023/01/20 06:43:13;;;;;;;10.48;5.43;;;;;;;-16.11;74.22;100476.00;4903437;28;20051;-58
2023/01/20 06:45:44;;;;;;;9.55;5.35;;;;;;;-16.18;74.66;100478.69;4899543;28;20053;-58
2023/01/20 06:48:14;;;;;;;14.07;5.32;;;;;;;-16.15;74.35;100478.09;4903242;28;20038;-58
2023/01/20 06:50:45;;;;;;;10.93;5.60;;;;;;;-16.23;74.25;100474.00;4902224;28;20514;-58
2023/01/20 06:53:17;;;;;;;14.45;6.07;;;;;;;-16.28;74.63;100481.06;4902746;28;20049;-57
2023/01/20 06:55:56;;;;;;;14.02;5.28;;;;;;;-16.34;74.52;100473.00;4913843;28;20151;-57
2023/01/20 06:58:28;;;;;;;13.65;5.55;;;;;;;-16.44;74.37;100473.78;4893882;28;20048;-58
2023/01/20 07:00:59;;;;;;;14.20;5.38;;;;;;;-17.12;74.45;100409.13;4902249;28;20052;-58
2023/01/20 07:03:30;;;;;;;10.18;5.30;;;;;;;-16.76;75.21;100458.28;4903057;28;20138;-57
2023/01/20 07:06:02;;;;;;;7.50;4.38;;;;;;;-16.82;74.88;100467.69;4904197;28;20071;-57
2023/01/20 07:08:34;;;;;;;9.05;5.35;;;;;;;-16.84;75.38;100474.22;4901359;28;20144;-58
2023/01/20 07:11:05;;;;;;;10.77;5.70;;;;;;;-16.83;75.22;100485.94;4893557;28;20054;-58
2023/01/20 07:13:35;;;;;;;11.77;6.22;;;;;;;-16.99;75.32;100479.50;4905302;28;21138;-58
2023/01/20 07:16:06;;;;;;;8.38;4.88;;;;;;;-16.99;75.36;100482.00;4903099;28;20057;-58
2023/01/20 07:18:40;;;;;;;8.88;4.57;;;;;;;-17.07;75.84;100479.50;4901791;28;20076;-57
2023/01/20 07:21:12;;;;;;;11.52;5.85;;;;;;;-17.09;76.27;100481.00;4902433;28;20052;-57
2023/01/20 07:23:44;;;;;;;8.80;4.50;;;;;;;-17.15;76.64;100486.25;4900089;28;20049;-58
2023/01/20 07:26:16;;;;;;;15.20;5.63;;;;;;;-17.88;76.34;100361.13;4893726;28;20059;-58
2023/01/20 07:28:47;;;;;;;15.18;5.85;;;;;;;-17.43;76.56;100451.13;4902454;28;20111;-58
2023/01/20 07:31:19;;;;;;;10.35;5.22;;;;;;;-17.32;76.55;100481.25;4913619;28;20056;-57
2023/01/20 07:33:50;;;;;;;11.00;5.38;;;;;;;-17.39;76.78;100479.81;4892025;28;21119;-57
2023/01/20 07:36:21;;;;;;;11.10;5.72;;;;;;;-17.59;76.41;100445.41;4902951;28;20836;-58
2023/01/20 07:38:55;;;;;;;10.30;5.93;;;;;;;-17.42;77.03;100475.41;4897986;28;20048;-57
2023/01/20 07:41:25;;;;;;;15.80;6.05;;;;;;;-17.53;76.74;100495.94;4886124;28;20049;-57
2023/01/20 07:43:56;;;;;;;12.15;5.80;;;;;;;-17.45;77.09;100490.06;4896300;28;20059;-58
2023/01/20 07:46:27;;;;;;;14.77;5.72;;;;;;;-17.45;77.21;100485.06;4903068;28;20056;-57
2023/01/20 07:49:05;;;;;;;15.43;6.40;;;;;;;-17.43;77.86;100488.59;4901924;28;20061;-57
2023/01/20 07:51:36;;;;;;;10.13;5.80;;;;;;;-17.38;78.02;100495.66;4890606;28;20060;-57
2023/01/20 07:57:20;;;;;;;9.85;5.82;;;;;;;-17.45;77.71;100490.06;4891495;28;20053;-57
2023/01/20 07:59:50;;;;;;;17.40;6.07;;;;;;;-17.57;77.88;100481.38;4900718;28;20074;-58
2023/01/20 08:02:21;;;;;;;7.68;4.80;;;;;;;-17.52;77.92;100497.72;4901369;28;20056;-57
2023/01/20 08:09:22;;;;;;;7.57;5.47;;;;;;;-17.57;79.08;100483.88;4908395;28;20638;-57
2023/01/20 08:11:56;;;;;;;13.88;5.80;;;;;;;-17.98;79.13;100435.81;4871382;28;20062;-57
2023/01/20 08:14:28;;;;;;;10.63;5.07;;;;;;;-17.61;79.87;100499.31;4889216;28;20109;-57
2023/01/20 08:17:00;;;;;;;8.68;5.20;;;;;;;-17.49;81.23;100488.03;4897765;28;20508;-57
2023/01/20 08:19:31;;;;;;;14.15;5.80;;;;;;;-17.45;81.26;100480.06;4891336;28;20057;-58
2023/01/20 08:22:05;;;;;;;13.90;5.93;;;;;;;-17.40;81.40;100473.91;4885796;28;20070;-58
2023/01/20 08:24:37;;;;;;;8.05;4.50;;;;;;;-17.40;81.60;100491.38;4896769;28;20049;-57
2023/01/20 08:27:10;;;;;;;7.25;4.55;;;;;;;-17.33;82.13;100480.38;4899537;28;20118;-58
2023/01/20 08:29:42;;;;;;;3.97;3.60;;;;;;;-17.29;82.76;100466.59;4898433;28;20660;-56
2023/01/20 08:32:13;;;;;;;7.93;4.90;;;;;;;-17.18;82.68;100480.97;4899342;28;20419;-57
2023/01/20 08:34:45;;;;;;;9.55;5.30;;;;;;;-17.19;82.77;100470.09;4893776;28;20053;-57
2023/01/20 08:37:16;;;;;;;9.00;5.47;;;;;;;-17.17;82.43;100477.72;4900023;28;20065;-57
2023/01/20 08:39:48;;;;;;;8.23;5.00;;;;;;;-17.16;82.58;100472.00;4896688;28;20044;-58
2023/01/20 08:42:21;;;;;;;11.73;5.47;;;;;;;-17.17;82.66;100485.22;4896763;28;20057;-57
2023/01/20 08:44:54;;;;;;;13.95;6.70;;;;;;;-17.19;82.33;100482.59;4899003;28;20391;-57
2023/01/20 08:47:26;;;;;;;8.77;4.93;;;;;;;-17.20;82.19;100482.44;4889996;28;20098;-57
2023/01/20 08:49:57;;;;;;;10.88;5.07;;;;;;;-17.28;82.31;100469.22;4896806;28;20539;-57
2023/01/20 08:52:29;;;;;;;10.38;4.70;;;;;;;-17.20;82.38;100485.81;4899706;28;20071;-57
2023/01/20 08:55:03;;;;;;;13.18;5.78;;;;;;;-17.17;82.55;100482.72;4897228;28;20479;-57
2023/01/20 08:57:37;;;;;;;13.88;5.47;;;;;;;-17.17;82.42;100480.22;4893844;28;20049;-57
2023/01/20 09:00:12;;;;;;;11.48;5.85;;;;;;;-17.20;82.69;100477.44;4898110;28;20215;-57
2023/01/20 09:02:44;;;;;;;7.35;5.35;;;;;;;-17.12;82.68;100481.56;4898598;28;20614;-57
2023/01/20 09:05:15;;;;;;;6.95;4.68;;;;;;;-17.18;82.28;100456.00;4891422;28;20053;-57
2023/01/20 09:07:47;;;;;;;6.15;4.70;;;;;;;-17.21;82.00;100465.69;4898171;28;20103;-57
2023/01/20 09:10:20;;;;;;;9.25;4.80;;;;;;;-17.22;82.04;100458.91;4897766;28;20053;-57
2023/01/20 09:12:53;;;;;;;7.05;4.53;;;;;;;-17.15;82.08;100473.75;4897879;28;20045;-58
2023/01/20 09:15:25;;;;;;;6.43;3.85;;;;;;;-17.15;81.99;100471.25;4893575;28;20063;-58
2023/01/20 09:17:57;;;;;;;9.57;4.60;;;;;;;-17.24;82.11;100460.41;4897831;28;20055;-57
2023/01/20 09:20:29;;;;;;;9.82;5.20;;;;;;;-17.66;81.66;100394.00;4898282;28;20091;-57
2023/01/20 09:23:03;;;;;;;7.47;5.13;;;;;;;-17.21;81.49;100480.69;4897672;28;20109;-57
2023/01/20 09:25:35;;;;;;;10.57;5.10;;;;;;;-17.77;81.44;100386.22;4895461;28;20057;-58
2023/01/20 09:28:10;;;;;;;8.57;4.63;;;;;;;-17.25;82.04;100477.00;4897821;28;20053;-57
2023/01/20 09:30:43;;;;;;;5.07;4.20;;;;;;;-17.29;81.90;100469.09;4897110;28;20105;-57
2023/01/20 09:33:15;;;;;;;7.38;4.68;;;;;;;-17.18;81.94;100483.47;4895079;28;20135;-58
2023/01/20 09:35:55;;;;;;;8.50;4.65;;;;;;;-17.14;81.92;100478.03;4898229;28;20080;-56
2023/01/20 09:44:37;;;;;;;5.18;4.68;;;;;;;-17.04;81.93;100500.69;4880042;28;20051;-57
2023/01/20 09:47:29;;;;;;;4.28;3.88;;;;;;;-16.97;82.12;100500.53;4890298;28;20445;-57
2023/01/20 09:53:21;;;;;;;6.97;4.85;;;;;;;-17.02;81.52;100499.22;4887570;28;20476;-58
2023/01/20 09:55:54;;;;;;;16.33;5.75;;;;;;;-17.17;81.40;100485.22;4890119;28;20140;-57
2023/01/20 09:58:35;;;;;;;13.60;5.55;;;;;;;-17.30;80.81;100498.16;4893139;28;20124;-57
2023/01/20 10:01:17;;;;;;;11.50;5.47;;;;;;;-17.42;81.03;100497.88;4890931;28;20587;-57
2023/01/20 10:03:55;;;;;;;4.10;3.70;;;;;;;-17.57;80.36;100493.84;4890018;28;20048;-57
2023/01/20 10:06:34;;;;;;;5.28;4.18;;;;;;;-17.77;79.93;100493.53;4892121;28;20391;-57
2023/01/20 10:09:20;;;;;;;14.00;6.30;;;;;;;-18.00;79.70;100489.69;4890827;28;20647;-58
2023/01/20 10:11:57;;;;;;;19.42;6.25;;;;;;;-18.00;80.24;100489.69;4890233;28;20048;-57
2023/01/20 10:14:35;;;;;;;9.55;5.32;;;;;;;-17.90;81.51;100482.38;4890097;28;20068;-57
2023/01/20 10:17:14;;;;;;;9.70;5.47;;;;;;;-18.05;81.91;100440.94;4891385;28;20144;-57
2023/01/20 10:19:52;;;;;;;6.88;4.75;;;;;;;-17.87;81.66;100472.72;4892340;28;20050;-56
2023/01/20 10:22:30;;;;;;;6.72;4.90;;;;;;;-17.77;82.02;100488.53;4901519;28;20048;-57
2023/01/20 10:25:07;;;;;;;18.17;7.53;;;;;;;-18.24;82.25;100377.50;4888297;28;20060;-58
2023/01/20 10:27:46;;;;;;;11.52;5.32;;;;;;;-17.66;82.02;100478.00;4891738;28;20052;-57
2023/01/20 10:30:20;;;;;;;13.88;5.70;;;;;;;-17.93;80.72;100474.59;4889111;28;20721;-57
2023/01/20 10:32:59;;;;;;;15.02;6.50;;;;;;;-18.10;80.12;100482.00;4901578;28;20056;-57
2023/01/20 10:36:26;;;;;;;12.65;6.88;;;;;;;-18.38;79.53;100489.22;4899083;28;20053;-56
2023/01/20 10:39:06;;;;;;;13.88;5.85;;;;;;;-18.55;79.32;100499.13;4879896;28;20087;-57
2023/01/20 10:41:44;;;;;;;10.10;6.05;;;;;;;-18.70;79.53;100495.94;4891784;28;20052;-57
2023/01/20 10:44:17;;;;;;;14.63;6.20;;;;;;;-18.76;79.38;100503.72;4889749;28;20132;-56
2023/01/20 10:47:05;;;;;;;8.93;4.90;;;;;;;-18.75;79.57;100502.94;4901721;28;20059;-56
2023/01/20 10:50:04;;;;;;;14.85;6.10;;;;;;;-18.83;79.58;100500.44;4880093;28;20056;-56
2023/01/20 10:52:58;;;;;;;13.20;6.88;;;;;;;-18.87;79.77;100501.72;4862997;28;20054;-56
2023/01/20 10:55:39;;;;;;;17.92;7.78;;;;;;;-18.88;79.74;100506.56;4890725;28;20153;-57
2023/01/20 10:58:29;;;;;;;11.48;6.80;;;;;;;-18.87;79.69;100503.34;4885320;28;20045;-56
2023/01/20 11:01:03;;;;;;;18.10;6.65;;;;;;;-18.83;79.86;100500.44;4888453;28;20048;-57
2023/01/20 11:03:38;;;;;;;20.05;6.68;;;;;;;-18.85;80.08;100480.34;4894242;28;20718;-55
2023/01/20 11:06:20;;;;;;;15.60;6.35;;;;;;;-18.53;80.61;100497.66;4899469;28;20048;-57
2023/01/20 11:08:52;;;;;;;9.52;5.07;;;;;;;-18.44;80.57;100503.59;4889900;28;20055;-57
2023/01/20 11:11:25;;;;;;;19.73;7.65;;;;;;;-18.38;80.64;100499.22;4900156;28;20049;-57
2023/01/20 11:13:58;;;;;;;19.02;7.60;;;;;;;-18.31;80.57;100506.59;4889899;28;20048;-56
2023/01/20 11:16:30;;;;;;;15.15;7.22;;;;;;;-18.29;80.78;100505.13;4901277;28;20053;-57
2023/01/20 11:19:04;;;;;;;14.13;6.53;;;;;;;-18.38;80.44;100489.22;4887217;28;20048;-57
2023/01/20 11:21:39;;;;;;;8.60;5.72;;;;;;;-18.40;80.89;100484.81;4894155;28;20063;-57
2023/01/20 11:24:34;;;;;;;12.77;7.07;;;;;;;-18.13;80.70;100514.13;4898643;28;20052;-57
2023/01/20 11:27:07;;;;;;;13.07;6.30;;;;;;;-18.11;80.58;100510.19;4880948;28;20057;-57
2023/01/20 11:29:44;;;;;;;13.18;6.18;;;;;;;-18.05;80.77;100520.78;4898797;28;20075;-55
2023/01/20 11:32:30;;;;;;;11.07;5.57;;;;;;;-18.07;80.65;100518.16;4892500;28;20055;-56
2023/01/20 11:35:03;;;;;;;9.73;4.85;;;;;;;-18.06;80.75;100514.03;4888797;28;20113;-56
2023/01/20 11:37:40;;;;;;;6.97;4.72;;;;;;;-17.96;80.84;100516.72;4894821;28;20196;-57
2023/01/20 11:40:23;;;;;;;10.50;6.30;;;;;;;-18.70;80.56;100384.69;4899413;28;20051;-59
2023/01/20 11:43:00;;;;;;;16.20;6.10;;;;;;;-18.60;80.98;100380.63;4884781;28;20057;-57
2023/01/20 11:45:33;;;;;;;21.02;7.25;;;;;;;-17.80;81.14;100518.22;4900196;28;20472;-57
2023/01/20 11:48:20;;;;;;;15.63;6.93;;;;;;;-17.77;81.31;100516.00;4889411;28;20055;-56
2023/01/20 11:50:56;;;;;;;13.10;6.88;;;;;;;-17.77;81.38;100523.47;4889515;28;20451;-56
2023/01/20 11:53:35;;;;;;;22.08;6.90;;;;;;;-17.78;80.98;100539.19;4889911;28;20056;-56
2023/01/20 11:56:18;;;;;;;11.18;5.80;;;;;;;-17.77;81.43;100528.47;4899841;28;20372;-57
2023/01/20 11:58:58;;;;;;;14.48;6.05;;;;;;;-17.90;81.35;100509.81;4888604;28;20497;-56
2023/01/20 12:01:32;;;;;;;11.82;5.65;;;;;;;-17.83;81.70;100514.69;4889376;28;20781;-57
2023/01/20 12:04:24;;;;;;;10.80;5.85;;;;;;;-17.80;81.69;100518.22;4898804;28;20632;-57